sensor_id;sensor_type;location;lat;lon;timestamp;P1;durP1;ratioP1;P2;durP2;ratioP2
69985;SDS011;57328;52.054;5.294;2022-07-22T00:01:47;8.98;;;1.60;;
69985;SDS011;57328;52.054;5.294;2022-07-22T00:04:14;10.32;;;2.00;;
69985;SDS011;57328;52.054;5.294;2022-07-22T00:06:42;11.57;;;2.05;;
69985;SDS011;57328;52.054;5.294;2022-07-22T00:09:09;13.05;;;2.33;;
69985;SDS011;57328;52.054;5.294;2022-07-22T00:11:37;2.85;;;0.90;;
69985;SDS011;57328;52.054;5.294;2022-07-22T00:14:04;6.95;;;2.10;;
69985;SDS011;57328;52.054;5.294;2022-07-22T00:16:31;6.93;;;1.40;;
69985;SDS011;57328;52.054;5.294;2022-07-22T00:18:58;8.70;;;1.67;;
69985;SDS011;57328;52.054;5.294;2022-07-22T00:21:26;4.22;;;1.35;;
69985;SDS011;57328;52.054;5.294;2022-07-22T00:23:53;8.45;;;1.58;;
69985;SDS011;57328;52.054;5.294;2022-07-22T00:26:20;6.88;;;1.65;;
69985;SDS011;57328;52.054;5.294;2022-07-22T00:28:47;8.27;;;1.60;;
69985;SDS011;57328;52.054;5.294;2022-07-22T00:31:14;6.78;;;2.05;;
69985;SDS011;57328;52.054;5.294;2022-07-22T00:33:42;8.48;;;1.80;;
69985;SDS011;57328;52.054;5.294;2022-07-22T00:36:09;6.10;;;1.27;;
69985;SDS011;57328;52.054;5.294;2022-07-22T00:38:36;6.50;;;1.90;;
69985;SDS011;57328;52.054;5.294;2022-07-22T00:41:03;10.85;;;1.60;;
69985;SDS011;57328;52.054;5.294;2022-07-22T00:46:16;5.65;;;1.52;;
69985;SDS011;57328;52.054;5.294;2022-07-22T00:48:44;6.93;;;1.70;;
69985;SDS011;57328;52.054;5.294;2022-07-22T00:51:11;5.72;;;1.65;;
69985;SDS011;57328;52.054;5.294;2022-07-22T00:53:38;8.23;;;1.73;;
69985;SDS011;57328;52.054;5.294;2022-07-22T00:56:19;4.85;;;1.58;;
69985;SDS011;57328;52.054;5.294;2022-07-22T00:58:48;5.85;;;1.13;;
69985;SDS011;57328;52.054;5.294;2022-07-22T01:01:16;6.63;;;1.60;;
69985;SDS011;57328;52.054;5.294;2022-07-22T01:03:43;8.73;;;1.90;;
69985;SDS011;57328;52.054;5.294;2022-07-22T01:06:15;5.47;;;1.92;;
69985;SDS011;57328;52.054;5.294;2022-07-22T01:08:42;5.57;;;1.35;;
69985;SDS011;57328;52.054;5.294;2022-07-22T01:11:14;5.05;;;1.55;;
69985;SDS011;57328;52.054;5.294;2022-07-22T01:13:41;6.03;;;1.52;;
69985;SDS011;57328;52.054;5.294;2022-07-22T01:16:09;6.80;;;1.73;;
69985;SDS011;57328;52.054;5.294;2022-07-22T01:18:36;9.95;;;1.88;;
69985;SDS011;57328;52.054;5.294;2022-07-22T01:21:05;6.43;;;1.75;;
69985;SDS011;57328;52.054;5.294;2022-07-22T01:23:32;7.70;;;1.58;;
69985;SDS011;57328;52.054;5.294;2022-07-22T01:25:59;4.95;;;1.25;;
69985;SDS011;57328;52.054;5.294;2022-07-22T01:28:26;2.88;;;1.23;;
69985;SDS011;57328;52.054;5.294;2022-07-22T01:30:54;2.90;;;1.00;;
69985;SDS011;57328;52.054;5.294;2022-07-22T01:33:21;6.20;;;1.25;;
69985;SDS011;57328;52.054;5.294;2022-07-22T01:35:49;4.93;;;1.70;;
69985;SDS011;57328;52.054;5.294;2022-07-22T01:38:17;6.05;;;1.85;;
69985;SDS011;57328;52.054;5.294;2022-07-22T01:40:44;5.43;;;1.50;;
69985;SDS011;57328;52.054;5.294;2022-07-22T01:43:12;5.43;;;1.30;;
69985;SDS011;57328;52.054;5.294;2022-07-22T01:45:47;5.47;;;1.52;;
69985;SDS011;57328;52.054;5.294;2022-07-22T01:48:15;6.55;;;1.35;;
69985;SDS011;57328;52.054;5.294;2022-07-22T01:50:42;7.20;;;1.75;;
69985;SDS011;57328;52.054;5.294;2022-07-22T01:53:10;7.43;;;1.70;;
69985;SDS011;57328;52.054;5.294;2022-07-22T01:55:37;6.63;;;1.27;;
69985;SDS011;57328;52.054;5.294;2022-07-22T01:58:04;9.07;;;1.70;;
69985;SDS011;57328;52.054;5.294;2022-07-22T02:00:32;6.38;;;1.38;;
69985;SDS011;57328;52.054;5.294;2022-07-22T02:02:59;6.88;;;1.48;;
69985;SDS011;57328;52.054;5.294;2022-07-22T02:05:27;8.15;;;1.45;;
69985;SDS011;57328;52.054;5.294;2022-07-22T02:07:58;8.07;;;1.63;;
69985;SDS011;57328;52.054;5.294;2022-07-22T02:10:25;7.22;;;1.63;;
69985;SDS011;57328;52.054;5.294;2022-07-22T02:12:53;7.18;;;1.40;;
69985;SDS011;57328;52.054;5.294;2022-07-22T02:15:20;5.32;;;1.38;;
69985;SDS011;57328;52.054;5.294;2022-07-22T02:17:47;3.38;;;1.20;;
69985;SDS011;57328;52.054;5.294;2022-07-22T02:20:14;6.03;;;1.40;;
69985;SDS011;57328;52.054;5.294;2022-07-22T02:22:41;3.55;;;1.00;;
69985;SDS011;57328;52.054;5.294;2022-07-22T02:25:08;5.60;;;1.83;;
69985;SDS011;57328;52.054;5.294;2022-07-22T02:27:36;4.95;;;1.35;;
69985;SDS011;57328;52.054;5.294;2022-07-22T02:30:04;8.55;;;1.70;;
69985;SDS011;57328;52.054;5.294;2022-07-22T02:32:31;4.63;;;1.48;;
69985;SDS011;57328;52.054;5.294;2022-07-22T02:34:58;10.30;;;1.63;;
69985;SDS011;57328;52.054;5.294;2022-07-22T02:37:25;3.13;;;1.15;;
69985;SDS011;57328;52.054;5.294;2022-07-22T02:39:53;8.15;;;1.15;;
69985;SDS011;57328;52.054;5.294;2022-07-22T02:42:20;5.88;;;1.30;;
69985;SDS011;57328;52.054;5.294;2022-07-22T02:44:47;4.43;;;1.10;;
69985;SDS011;57328;52.054;5.294;2022-07-22T02:47:14;5.43;;;1.25;;
69985;SDS011;57328;52.054;5.294;2022-07-22T02:49:41;5.72;;;1.15;;
69985;SDS011;57328;52.054;5.294;2022-07-22T02:52:08;5.03;;;1.23;;
69985;SDS011;57328;52.054;5.294;2022-07-22T02:54:37;2.97;;;1.13;;
69985;SDS011;57328;52.054;5.294;2022-07-22T02:57:05;5.47;;;1.13;;
69985;SDS011;57328;52.054;5.294;2022-07-22T02:59:32;2.47;;;1.13;;
69985;SDS011;57328;52.054;5.294;2022-07-22T03:01:59;4.57;;;1.38;;
69985;SDS011;57328;52.054;5.294;2022-07-22T03:04:26;5.45;;;1.40;;
69985;SDS011;57328;52.054;5.294;2022-07-22T03:06:53;3.80;;;1.48;;
69985;SDS011;57328;52.054;5.294;2022-07-22T03:09:20;3.92;;;1.25;;
69985;SDS011;57328;52.054;5.294;2022-07-22T03:11:48;4.65;;;1.13;;
69985;SDS011;57328;52.054;5.294;2022-07-22T03:14:15;4.20;;;1.05;;
69985;SDS011;57328;52.054;5.294;2022-07-22T03:16:45;6.30;;;1.60;;
69985;SDS011;57328;52.054;5.294;2022-07-22T03:19:13;6.13;;;1.70;;
69985;SDS011;57328;52.054;5.294;2022-07-22T03:21:40;4.38;;;1.27;;
69985;SDS011;57328;52.054;5.294;2022-07-22T03:24:07;10.65;;;2.03;;
69985;SDS011;57328;52.054;5.294;2022-07-22T03:26:34;2.65;;;0.82;;
69985;SDS011;57328;52.054;5.294;2022-07-22T03:29:02;5.43;;;1.13;;
69985;SDS011;57328;52.054;5.294;2022-07-22T03:31:29;5.50;;;1.20;;
69985;SDS011;57328;52.054;5.294;2022-07-22T03:33:56;7.20;;;1.30;;
69985;SDS011;57328;52.054;5.294;2022-07-22T03:36:24;3.40;;;1.30;;
69985;SDS011;57328;52.054;5.294;2022-07-22T03:38:51;6.95;;;1.50;;
69985;SDS011;57328;52.054;5.294;2022-07-22T03:41:18;6.30;;;1.63;;
69985;SDS011;57328;52.054;5.294;2022-07-22T03:43:46;4.53;;;1.25;;
69985;SDS011;57328;52.054;5.294;2022-07-22T03:46:13;4.40;;;1.35;;
69985;SDS011;57328;52.054;5.294;2022-07-22T03:48:40;6.60;;;1.38;;
69985;SDS011;57328;52.054;5.294;2022-07-22T03:51:07;5.55;;;1.35;;
69985;SDS011;57328;52.054;5.294;2022-07-22T03:53:35;7.28;;;1.77;;
69985;SDS011;57328;52.054;5.294;2022-07-22T03:56:02;8.18;;;1.63;;
69985;SDS011;57328;52.054;5.294;2022-07-22T03:58:29;5.88;;;1.42;;
69985;SDS011;57328;52.054;5.294;2022-07-22T04:00:56;3.90;;;1.08;;
69985;SDS011;57328;52.054;5.294;2022-07-22T04:03:24;3.65;;;1.52;;
69985;SDS011;57328;52.054;5.294;2022-07-22T04:05:51;4.18;;;1.30;;
69985;SDS011;57328;52.054;5.294;2022-07-22T04:08:27;5.22;;;1.52;;
69985;SDS011;57328;52.054;5.294;2022-07-22T04:10:54;4.85;;;1.30;;
69985;SDS011;57328;52.054;5.294;2022-07-22T04:13:21;4.88;;;0.75;;
69985;SDS011;57328;52.054;5.294;2022-07-22T04:15:48;9.70;;;1.70;;
69985;SDS011;57328;52.054;5.294;2022-07-22T04:18:16;4.38;;;0.93;;
69985;SDS011;57328;52.054;5.294;2022-07-22T04:20:43;2.47;;;0.90;;
69985;SDS011;57328;52.054;5.294;2022-07-22T04:23:10;7.13;;;1.50;;
69985;SDS011;57328;52.054;5.294;2022-07-22T04:25:46;4.55;;;1.45;;
69985;SDS011;57328;52.054;5.294;2022-07-22T04:28:13;5.82;;;1.60;;
69985;SDS011;57328;52.054;5.294;2022-07-22T04:30:40;5.13;;;1.50;;
69985;SDS011;57328;52.054;5.294;2022-07-22T04:33:08;7.85;;;1.67;;
69985;SDS011;57328;52.054;5.294;2022-07-22T04:35:35;11.68;;;2.10;;
69985;SDS011;57328;52.054;5.294;2022-07-22T04:38:02;3.22;;;0.80;;
69985;SDS011;57328;52.054;5.294;2022-07-22T04:40:30;3.45;;;0.90;;
69985;SDS011;57328;52.054;5.294;2022-07-22T04:45:25;5.00;;;1.40;;
69985;SDS011;57328;52.054;5.294;2022-07-22T04:47:52;3.80;;;1.20;;
69985;SDS011;57328;52.054;5.294;2022-07-22T04:50:19;5.30;;;1.45;;
69985;SDS011;57328;52.054;5.294;2022-07-22T04:52:47;3.78;;;1.38;;
69985;SDS011;57328;52.054;5.294;2022-07-22T04:55:15;4.93;;;1.17;;
69985;SDS011;57328;52.054;5.294;2022-07-22T04:57:42;7.22;;;1.40;;
69985;SDS011;57328;52.054;5.294;2022-07-22T05:00:10;4.53;;;1.00;;
69985;SDS011;57328;52.054;5.294;2022-07-22T05:02:37;3.30;;;1.08;;
69985;SDS011;57328;52.054;5.294;2022-07-22T05:05:04;3.80;;;1.15;;
69985;SDS011;57328;52.054;5.294;2022-07-22T05:07:32;1.73;;;0.80;;
69985;SDS011;57328;52.054;5.294;2022-07-22T05:09:59;3.40;;;1.00;;
69985;SDS011;57328;52.054;5.294;2022-07-22T05:12:26;3.25;;;1.00;;
69985;SDS011;57328;52.054;5.294;2022-07-22T05:14:53;2.20;;;0.90;;
69985;SDS011;57328;52.054;5.294;2022-07-22T05:17:20;5.13;;;1.08;;
69985;SDS011;57328;52.054;5.294;2022-07-22T05:19:50;2.47;;;0.80;;
69985;SDS011;57328;52.054;5.294;2022-07-22T05:22:17;5.43;;;0.95;;
69985;SDS011;57328;52.054;5.294;2022-07-22T05:24:44;4.45;;;0.80;;
69985;SDS011;57328;52.054;5.294;2022-07-22T05:27:11;4.28;;;0.80;;
69985;SDS011;57328;52.054;5.294;2022-07-22T05:29:38;5.10;;;1.00;;
69985;SDS011;57328;52.054;5.294;2022-07-22T05:32:05;5.68;;;0.85;;
69985;SDS011;57328;52.054;5.294;2022-07-22T05:34:32;3.38;;;0.80;;
69985;SDS011;57328;52.054;5.294;2022-07-22T05:37:00;3.22;;;0.95;;
69985;SDS011;57328;52.054;5.294;2022-07-22T05:39:27;6.45;;;1.05;;
69985;SDS011;57328;52.054;5.294;2022-07-22T05:41:54;4.30;;;1.00;;
69985;SDS011;57328;52.054;5.294;2022-07-22T05:44:21;4.32;;;0.90;;
69985;SDS011;57328;52.054;5.294;2022-07-22T05:46:48;5.70;;;0.90;;
69985;SDS011;57328;52.054;5.294;2022-07-22T05:49:16;5.30;;;0.85;;
69985;SDS011;57328;52.054;5.294;2022-07-22T05:51:43;3.60;;;0.90;;
69985;SDS011;57328;52.054;5.294;2022-07-22T05:54:10;3.50;;;0.70;;
69985;SDS011;57328;52.054;5.294;2022-07-22T05:56:37;4.60;;;1.25;;
69985;SDS011;57328;52.054;5.294;2022-07-22T05:59:04;2.22;;;0.90;;
69985;SDS011;57328;52.054;5.294;2022-07-22T06:01:31;3.13;;;0.80;;
69985;SDS011;57328;52.054;5.294;2022-07-22T06:03:58;5.45;;;1.00;;
69985;SDS011;57328;52.054;5.294;2022-07-22T06:06:26;3.45;;;0.82;;
69985;SDS011;57328;52.054;5.294;2022-07-22T06:08:53;4.60;;;1.13;;
69985;SDS011;57328;52.054;5.294;2022-07-22T06:11:21;4.50;;;1.00;;
69985;SDS011;57328;52.054;5.294;2022-07-22T06:13:48;3.92;;;0.80;;
69985;SDS011;57328;52.054;5.294;2022-07-22T06:16:15;5.38;;;0.85;;
69985;SDS011;57328;52.054;5.294;2022-07-22T06:18:42;3.25;;;0.80;;
69985;SDS011;57328;52.054;5.294;2022-07-22T06:21:09;5.60;;;1.10;;
69985;SDS011;57328;52.054;5.294;2022-07-22T06:23:36;2.53;;;0.73;;
69985;SDS011;57328;52.054;5.294;2022-07-22T06:26:03;3.22;;;1.20;;
69985;SDS011;57328;52.054;5.294;2022-07-22T06:28:31;2.83;;;0.88;;
69985;SDS011;57328;52.054;5.294;2022-07-22T06:30:58;5.55;;;1.20;;
69985;SDS011;57328;52.054;5.294;2022-07-22T06:33:25;2.70;;;0.90;;
69985;SDS011;57328;52.054;5.294;2022-07-22T06:35:52;5.95;;;1.05;;
69985;SDS011;57328;52.054;5.294;2022-07-22T06:38:20;2.58;;;0.70;;
69985;SDS011;57328;52.054;5.294;2022-07-22T06:40:59;4.15;;;0.90;;
69985;SDS011;57328;52.054;5.294;2022-07-22T06:43:32;4.82;;;0.90;;
69985;SDS011;57328;52.054;5.294;2022-07-22T06:45:59;3.42;;;0.85;;
69985;SDS011;57328;52.054;5.294;2022-07-22T06:48:29;8.45;;;1.30;;
69985;SDS011;57328;52.054;5.294;2022-07-22T06:50:56;5.65;;;0.90;;
69985;SDS011;57328;52.054;5.294;2022-07-22T06:53:23;2.40;;;0.95;;
69985;SDS011;57328;52.054;5.294;2022-07-22T06:58:54;4.18;;;0.98;;
69985;SDS011;57328;52.054;5.294;2022-07-22T07:01:22;4.50;;;1.10;;
69985;SDS011;57328;52.054;5.294;2022-07-22T07:03:49;3.70;;;0.90;;
69985;SDS011;57328;52.054;5.294;2022-07-22T07:06:16;3.22;;;0.73;;
69985;SDS011;57328;52.054;5.294;2022-07-22T07:08:43;5.35;;;0.65;;
69985;SDS011;57328;52.054;5.294;2022-07-22T07:11:11;4.13;;;0.98;;
69985;SDS011;57328;52.054;5.294;2022-07-22T07:13:38;2.13;;;0.75;;
69985;SDS011;57328;52.054;5.294;2022-07-22T07:16:05;3.45;;;0.88;;
69985;SDS011;57328;52.054;5.294;2022-07-22T07:18:32;3.38;;;1.00;;
69985;SDS011;57328;52.054;5.294;2022-07-22T07:20:59;4.57;;;1.00;;
69985;SDS011;57328;52.054;5.294;2022-07-22T07:23:27;3.70;;;0.90;;
69985;SDS011;57328;52.054;5.294;2022-07-22T07:25:54;5.45;;;0.82;;
69985;SDS011;57328;52.054;5.294;2022-07-22T07:28:21;3.88;;;0.98;;
69985;SDS011;57328;52.054;5.294;2022-07-22T07:30:48;3.92;;;0.95;;
69985;SDS011;57328;52.054;5.294;2022-07-22T07:33:16;4.72;;;0.90;;
69985;SDS011;57328;52.054;5.294;2022-07-22T07:35:43;7.18;;;0.93;;
69985;SDS011;57328;52.054;5.294;2022-07-22T07:38:10;3.10;;;0.80;;
69985;SDS011;57328;52.054;5.294;2022-07-22T07:40:37;6.53;;;1.00;;
69985;SDS011;57328;52.054;5.294;2022-07-22T07:43:05;3.05;;;0.80;;
69985;SDS011;57328;52.054;5.294;2022-07-22T07:45:32;4.63;;;0.98;;
69985;SDS011;57328;52.054;5.294;2022-07-22T07:47:59;4.93;;;0.73;;
69985;SDS011;57328;52.054;5.294;2022-07-22T07:50:27;3.60;;;0.80;;
69985;SDS011;57328;52.054;5.294;2022-07-22T07:52:54;3.05;;;0.80;;
69985;SDS011;57328;52.054;5.294;2022-07-22T07:57:49;3.83;;;0.80;;
69985;SDS011;57328;52.054;5.294;2022-07-22T08:00:19;3.42;;;1.00;;
69985;SDS011;57328;52.054;5.294;2022-07-22T08:02:47;4.55;;;0.80;;
69985;SDS011;57328;52.054;5.294;2022-07-22T08:05:15;2.65;;;0.88;;
69985;SDS011;57328;52.054;5.294;2022-07-22T08:07:43;2.67;;;0.88;;
69985;SDS011;57328;52.054;5.294;2022-07-22T08:10:10;3.30;;;0.70;;
69985;SDS011;57328;52.054;5.294;2022-07-22T08:12:57;3.85;;;0.90;;
69985;SDS011;57328;52.054;5.294;2022-07-22T08:15:26;1.73;;;0.70;;
69985;SDS011;57328;52.054;5.294;2022-07-22T08:17:53;3.97;;;0.93;;
69985;SDS011;57328;52.054;5.294;2022-07-22T08:20:21;3.75;;;0.80;;
69985;SDS011;57328;52.054;5.294;2022-07-22T08:22:48;1.95;;;0.90;;
69985;SDS011;57328;52.054;5.294;2022-07-22T08:25:16;2.70;;;0.82;;
69985;SDS011;57328;52.054;5.294;2022-07-22T08:27:43;4.20;;;1.00;;
69985;SDS011;57328;52.054;5.294;2022-07-22T08:30:11;3.17;;;1.00;;
69985;SDS011;57328;52.054;5.294;2022-07-22T08:32:38;6.55;;;1.20;;
69985;SDS011;57328;52.054;5.294;2022-07-22T08:35:06;2.38;;;0.77;;
69985;SDS011;57328;52.054;5.294;2022-07-22T08:37:33;1.83;;;0.80;;
69985;SDS011;57328;52.054;5.294;2022-07-22T08:40:01;4.07;;;0.88;;
69985;SDS011;57328;52.054;5.294;2022-07-22T08:42:28;3.40;;;1.00;;
69985;SDS011;57328;52.054;5.294;2022-07-22T08:47:30;3.33;;;1.10;;
69985;SDS011;57328;52.054;5.294;2022-07-22T08:50:08;3.97;;;0.80;;
69985;SDS011;57328;52.054;5.294;2022-07-22T08:52:36;3.20;;;0.80;;
69985;SDS011;57328;52.054;5.294;2022-07-22T08:55:03;3.97;;;1.13;;
69985;SDS011;57328;52.054;5.294;2022-07-22T08:57:31;4.30;;;1.35;;
69985;SDS011;57328;52.054;5.294;2022-07-22T08:59:59;3.83;;;0.85;;
69985;SDS011;57328;52.054;5.294;2022-07-22T09:02:27;2.00;;;0.80;;
69985;SDS011;57328;52.054;5.294;2022-07-22T09:05:02;3.58;;;0.90;;
69985;SDS011;57328;52.054;5.294;2022-07-22T09:07:49;3.10;;;0.98;;
69985;SDS011;57328;52.054;5.294;2022-07-22T09:10:17;2.95;;;1.05;;
69985;SDS011;57328;52.054;5.294;2022-07-22T09:15:27;4.53;;;1.08;;
69985;SDS011;57328;52.054;5.294;2022-07-22T09:17:55;3.20;;;1.15;;
69985;SDS011;57328;52.054;5.294;2022-07-22T09:20:29;3.90;;;1.05;;
69985;SDS011;57328;52.054;5.294;2022-07-22T09:25:52;5.55;;;1.25;;
69985;SDS011;57328;52.054;5.294;2022-07-22T09:28:21;2.42;;;1.20;;
69985;SDS011;57328;52.054;5.294;2022-07-22T09:30:51;3.83;;;1.05;;
69985;SDS011;57328;52.054;5.294;2022-07-22T09:33:21;4.57;;;1.10;;
69985;SDS011;57328;52.054;5.294;2022-07-22T09:35:49;3.38;;;1.00;;
69985;SDS011;57328;52.054;5.294;2022-07-22T09:38:17;2.00;;;0.93;;
69985;SDS011;57328;52.054;5.294;2022-07-22T09:40:45;4.38;;;1.00;;
69985;SDS011;57328;52.054;5.294;2022-07-22T09:43:14;3.97;;;1.00;;
69985;SDS011;57328;52.054;5.294;2022-07-22T09:45:50;3.13;;;1.17;;
69985;SDS011;57328;52.054;5.294;2022-07-22T09:48:20;3.22;;;1.20;;
69985;SDS011;57328;52.054;5.294;2022-07-22T09:50:48;2.22;;;0.88;;
69985;SDS011;57328;52.054;5.294;2022-07-22T09:53:16;4.50;;;1.17;;
69985;SDS011;57328;52.054;5.294;2022-07-22T09:58:11;2.97;;;1.20;;
69985;SDS011;57328;52.054;5.294;2022-07-22T10:00:39;5.40;;;1.20;;
69985;SDS011;57328;52.054;5.294;2022-07-22T10:03:08;3.47;;;1.20;;
69985;SDS011;57328;52.054;5.294;2022-07-22T10:05:40;2.03;;;1.10;;
69985;SDS011;57328;52.054;5.294;2022-07-22T10:08:08;4.25;;;1.10;;
69985;SDS011;57328;52.054;5.294;2022-07-22T10:10:36;4.72;;;1.30;;
69985;SDS011;57328;52.054;5.294;2022-07-22T10:13:05;4.55;;;1.42;;
69985;SDS011;57328;52.054;5.294;2022-07-22T10:15:32;2.95;;;1.13;;
69985;SDS011;57328;52.054;5.294;2022-07-22T10:18:08;4.10;;;1.25;;
69985;SDS011;57328;52.054;5.294;2022-07-22T10:20:40;2.60;;;1.17;;
69985;SDS011;57328;52.054;5.294;2022-07-22T10:23:07;3.40;;;1.15;;
69985;SDS011;57328;52.054;5.294;2022-07-22T10:25:50;3.78;;;1.17;;
69985;SDS011;57328;52.054;5.294;2022-07-22T10:30:51;3.03;;;1.17;;
69985;SDS011;57328;52.054;5.294;2022-07-22T10:33:18;4.93;;;1.13;;
69985;SDS011;57328;52.054;5.294;2022-07-22T10:35:52;3.58;;;1.10;;
69985;SDS011;57328;52.054;5.294;2022-07-22T10:38:20;5.20;;;1.27;;
69985;SDS011;57328;52.054;5.294;2022-07-22T10:41:03;3.83;;;1.20;;
69985;SDS011;57328;52.054;5.294;2022-07-22T10:43:53;4.00;;;1.17;;
69985;SDS011;57328;52.054;5.294;2022-07-22T10:46:20;3.00;;;1.00;;
69985;SDS011;57328;52.054;5.294;2022-07-22T10:49:07;4.88;;;1.30;;
69985;SDS011;57328;52.054;5.294;2022-07-22T10:51:34;4.97;;;1.38;;
69985;SDS011;57328;52.054;5.294;2022-07-22T10:54:01;5.53;;;1.73;;
69985;SDS011;57328;52.054;5.294;2022-07-22T10:56:33;6.07;;;1.80;;
69985;SDS011;57328;52.054;5.294;2022-07-22T10:59:08;2.88;;;1.35;;
69985;SDS011;57328;52.054;5.294;2022-07-22T11:01:37;3.38;;;1.60;;
69985;SDS011;57328;52.054;5.294;2022-07-22T11:04:09;4.53;;;1.55;;
69985;SDS011;57328;52.054;5.294;2022-07-22T11:06:44;4.47;;;1.70;;
69985;SDS011;57328;52.054;5.294;2022-07-22T11:09:13;7.40;;;2.45;;
69985;SDS011;57328;52.054;5.294;2022-07-22T11:11:44;5.43;;;2.25;;
69985;SDS011;57328;52.054;5.294;2022-07-22T11:16:51;6.40;;;2.63;;
69985;SDS011;57328;52.054;5.294;2022-07-22T11:19:26;5.78;;;2.22;;
69985;SDS011;57328;52.054;5.294;2022-07-22T11:24:21;5.18;;;2.13;;
69985;SDS011;57328;52.054;5.294;2022-07-22T11:26:49;5.80;;;2.45;;
69985;SDS011;57328;52.054;5.294;2022-07-22T11:29:18;5.00;;;2.63;;
69985;SDS011;57328;52.054;5.294;2022-07-22T11:31:45;4.85;;;2.40;;
69985;SDS011;57328;52.054;5.294;2022-07-22T11:34:13;6.55;;;2.60;;
69985;SDS011;57328;52.054;5.294;2022-07-22T11:36:42;7.88;;;2.67;;
69985;SDS011;57328;52.054;5.294;2022-07-22T11:39:11;7.65;;;2.88;;
69985;SDS011;57328;52.054;5.294;2022-07-22T11:41:38;5.40;;;2.30;;
69985;SDS011;57328;52.054;5.294;2022-07-22T11:44:06;4.97;;;2.58;;
69985;SDS011;57328;52.054;5.294;2022-07-22T11:46:34;6.65;;;2.80;;
69985;SDS011;57328;52.054;5.294;2022-07-22T11:49:02;6.13;;;2.97;;
69985;SDS011;57328;52.054;5.294;2022-07-22T11:51:30;6.53;;;2.88;;
69985;SDS011;57328;52.054;5.294;2022-07-22T11:53:57;5.10;;;2.72;;
69985;SDS011;57328;52.054;5.294;2022-07-22T11:56:26;7.22;;;2.90;;
69985;SDS011;57328;52.054;5.294;2022-07-22T11:58:54;6.50;;;2.83;;
69985;SDS011;57328;52.054;5.294;2022-07-22T12:01:22;5.82;;;2.83;;
69985;SDS011;57328;52.054;5.294;2022-07-22T12:03:51;4.82;;;2.70;;
69985;SDS011;57328;52.054;5.294;2022-07-22T12:06:19;6.18;;;2.53;;
69985;SDS011;57328;52.054;5.294;2022-07-22T12:11:17;7.85;;;3.30;;
69985;SDS011;57328;52.054;5.294;2022-07-22T12:13:45;4.60;;;2.72;;
69985;SDS011;57328;52.054;5.294;2022-07-22T12:16:18;8.00;;;2.92;;
69985;SDS011;57328;52.054;5.294;2022-07-22T12:18:56;6.50;;;3.00;;
69985;SDS011;57328;52.054;5.294;2022-07-22T12:21:25;6.18;;;2.80;;
69985;SDS011;57328;52.054;5.294;2022-07-22T12:23:56;4.88;;;2.55;;
69985;SDS011;57328;52.054;5.294;2022-07-22T12:26:41;7.55;;;2.60;;
69985;SDS011;57328;52.054;5.294;2022-07-22T12:32:00;6.70;;;2.88;;
69985;SDS011;57328;52.054;5.294;2022-07-22T12:34:28;7.10;;;2.90;;
69985;SDS011;57328;52.054;5.294;2022-07-22T12:36:56;5.13;;;2.40;;
69985;SDS011;57328;52.054;5.294;2022-07-22T12:39:23;6.68;;;2.92;;
69985;SDS011;57328;52.054;5.294;2022-07-22T12:41:51;6.00;;;2.90;;
69985;SDS011;57328;52.054;5.294;2022-07-22T12:44:23;8.73;;;3.00;;
69985;SDS011;57328;52.054;5.294;2022-07-22T12:46:53;5.68;;;2.42;;
69985;SDS011;57328;52.054;5.294;2022-07-22T12:49:21;7.70;;;2.90;;
69985;SDS011;57328;52.054;5.294;2022-07-22T12:52:07;7.38;;;3.10;;
69985;SDS011;57328;52.054;5.294;2022-07-22T12:54:35;5.15;;;2.70;;
69985;SDS011;57328;52.054;5.294;2022-07-22T12:57:03;4.55;;;2.72;;
69985;SDS011;57328;52.054;5.294;2022-07-22T12:59:31;8.98;;;2.75;;
69985;SDS011;57328;52.054;5.294;2022-07-22T13:01:58;5.32;;;2.58;;
69985;SDS011;57328;52.054;5.294;2022-07-22T13:04:25;6.30;;;2.80;;
69985;SDS011;57328;52.054;5.294;2022-07-22T13:06:52;6.45;;;3.10;;
69985;SDS011;57328;52.054;5.294;2022-07-22T13:09:19;6.07;;;2.67;;
69985;SDS011;57328;52.054;5.294;2022-07-22T13:11:47;5.22;;;2.70;;
69985;SDS011;57328;52.054;5.294;2022-07-22T13:14:14;5.65;;;2.58;;
69985;SDS011;57328;52.054;5.294;2022-07-22T13:16:41;6.72;;;2.90;;
69985;SDS011;57328;52.054;5.294;2022-07-22T13:19:08;7.22;;;3.20;;
69985;SDS011;57328;52.054;5.294;2022-07-22T13:21:35;7.55;;;3.40;;
69985;SDS011;57328;52.054;5.294;2022-07-22T13:24:03;6.00;;;2.80;;
69985;SDS011;57328;52.054;5.294;2022-07-22T13:26:30;6.35;;;2.55;;
69985;SDS011;57328;52.054;5.294;2022-07-22T13:28:57;5.93;;;2.92;;
69985;SDS011;57328;52.054;5.294;2022-07-22T13:31:25;5.45;;;2.90;;
69985;SDS011;57328;52.054;5.294;2022-07-22T13:33:53;5.00;;;2.55;;
69985;SDS011;57328;52.054;5.294;2022-07-22T13:36:21;4.65;;;2.45;;
69985;SDS011;57328;52.054;5.294;2022-07-22T13:38:49;6.88;;;3.05;;
69985;SDS011;57328;52.054;5.294;2022-07-22T13:41:18;5.57;;;2.80;;
69985;SDS011;57328;52.054;5.294;2022-07-22T13:43:45;5.30;;;3.00;;
69985;SDS011;57328;52.054;5.294;2022-07-22T13:46:15;6.65;;;3.08;;
69985;SDS011;57328;52.054;5.294;2022-07-22T13:48:42;6.30;;;2.88;;
69985;SDS011;57328;52.054;5.294;2022-07-22T13:51:10;5.20;;;2.70;;
69985;SDS011;57328;52.054;5.294;2022-07-22T13:53:37;5.32;;;2.70;;
69985;SDS011;57328;52.054;5.294;2022-07-22T13:56:05;5.32;;;2.80;;
69985;SDS011;57328;52.054;5.294;2022-07-22T13:58:34;5.10;;;2.88;;
69985;SDS011;57328;52.054;5.294;2022-07-22T14:01:02;5.28;;;2.40;;
69985;SDS011;57328;52.054;5.294;2022-07-22T14:03:30;5.15;;;2.72;;
69985;SDS011;57328;52.054;5.294;2022-07-22T14:05:57;4.63;;;2.80;;
69985;SDS011;57328;52.054;5.294;2022-07-22T14:08:31;4.97;;;2.67;;
69985;SDS011;57328;52.054;5.294;2022-07-22T14:11:00;5.95;;;2.83;;
69985;SDS011;57328;52.054;5.294;2022-07-22T14:13:33;4.72;;;2.60;;
69985;SDS011;57328;52.054;5.294;2022-07-22T14:16:05;5.90;;;2.83;;
69985;SDS011;57328;52.054;5.294;2022-07-22T14:19:13;4.65;;;2.70;;
69985;SDS011;57328;52.054;5.294;2022-07-22T14:21:42;7.65;;;2.97;;
69985;SDS011;57328;52.054;5.294;2022-07-22T14:24:11;6.35;;;2.67;;
69985;SDS011;57328;52.054;5.294;2022-07-22T14:26:39;4.47;;;2.70;;
69985;SDS011;57328;52.054;5.294;2022-07-22T14:29:08;5.95;;;3.05;;
69985;SDS011;57328;52.054;5.294;2022-07-22T14:31:38;5.97;;;2.40;;
69985;SDS011;57328;52.054;5.294;2022-07-22T14:34:06;5.40;;;2.33;;
69985;SDS011;57328;52.054;5.294;2022-07-22T14:36:33;7.25;;;2.20;;
69985;SDS011;57328;52.054;5.294;2022-07-22T14:39:03;4.95;;;2.40;;
69985;SDS011;57328;52.054;5.294;2022-07-22T14:41:30;6.72;;;2.17;;
69985;SDS011;57328;52.054;5.294;2022-07-22T14:43:58;4.05;;;2.10;;
69985;SDS011;57328;52.054;5.294;2022-07-22T14:46:26;6.82;;;1.85;;
69985;SDS011;57328;52.054;5.294;2022-07-22T14:48:53;6.95;;;1.88;;
69985;SDS011;57328;52.054;5.294;2022-07-22T14:51:21;4.88;;;2.03;;
69985;SDS011;57328;52.054;5.294;2022-07-22T14:56:16;3.22;;;1.70;;
69985;SDS011;57328;52.054;5.294;2022-07-22T15:01:10;4.32;;;1.50;;
69985;SDS011;57328;52.054;5.294;2022-07-22T15:03:39;2.47;;;1.33;;
69985;SDS011;57328;52.054;5.294;2022-07-22T15:06:07;3.90;;;1.63;;
69985;SDS011;57328;52.054;5.294;2022-07-22T15:08:34;4.47;;;1.45;;
69985;SDS011;57328;52.054;5.294;2022-07-22T15:11:01;3.22;;;1.65;;
69985;SDS011;57328;52.054;5.294;2022-07-22T15:13:29;4.15;;;1.90;;
69985;SDS011;57328;52.054;5.294;2022-07-22T15:15:56;3.53;;;1.67;;
69985;SDS011;57328;52.054;5.294;2022-07-22T15:18:24;5.43;;;1.65;;
69985;SDS011;57328;52.054;5.294;2022-07-22T15:20:51;4.28;;;1.60;;
69985;SDS011;57328;52.054;5.294;2022-07-22T15:23:21;4.05;;;1.80;;
69985;SDS011;57328;52.054;5.294;2022-07-22T15:25:50;4.13;;;1.75;;
69985;SDS011;57328;52.054;5.294;2022-07-22T15:28:18;5.70;;;1.67;;
69985;SDS011;57328;52.054;5.294;2022-07-22T15:31:01;4.13;;;1.60;;
69985;SDS011;57328;52.054;5.294;2022-07-22T15:33:28;6.07;;;1.90;;
69985;SDS011;57328;52.054;5.294;2022-07-22T15:36:03;5.15;;;1.60;;